createdAt,value
2023-01-04T02:12:11.698Z,8.12
2023-01-04T02:14:38.543Z,8.13
2023-01-04T02:17:26.846Z,8.15
2023-01-04T02:20:28.052Z,8.18
2023-01-04T02:23:16.492Z,8.19
2023-01-04T02:26:13.985Z,8.23
2023-01-04T02:29:31.850Z,8.25
2023-01-04T02:32:04.920Z,8.28
2023-01-04T02:34:40.402Z,8.30
2023-01-04T02:37:19.436Z,8.33
2023-01-04T02:40:03.772Z,8.36
2023-01-04T02:42:56.736Z,8.38
2023-01-04T02:45:29.627Z,8.40
2023-01-04T02:48:14.659Z,8.43
2023-01-04T02:50:52.470Z,8.44
2023-01-04T02:53:23.022Z,8.45
2023-01-04T02:56:10.656Z,8.49
2023-01-04T02:58:57.819Z,8.53
2023-01-04T03:02:27.672Z,8.55
2023-01-04T03:05:26.227Z,8.57
2023-01-04T03:08:27.124Z,8.60
2023-01-04T03:11:03.913Z,8.60
2023-01-04T03:13:33.239Z,8.62
2023-01-04T03:16:18.517Z,8.64
2023-01-04T03:18:50.357Z,8.68
2023-01-04T03:21:18.678Z,8.70
2023-01-04T03:24:07.695Z,8.74
2023-01-04T03:27:02.774Z,8.76
2023-01-04T03:30:03.126Z,8.77
2023-01-04T03:33:13.946Z,8.79
2023-01-04T03:35:49.003Z,8.81
2023-01-04T03:38:54.834Z,8.84
2023-01-04T03:41:51.174Z,8.88
2023-01-04T03:45:09.956Z,8.91
2023-01-04T03:48:21.211Z,8.96
2023-01-04T03:50:56.619Z,9.02
2023-01-04T03:53:25.231Z,9.06
2023-01-04T03:55:53.957Z,9.07
2023-01-04T03:58:21.371Z,9.11
2023-01-04T04:00:48.590Z,9.15
2023-01-04T04:03:17.137Z,9.17
2023-01-04T04:06:04.024Z,9.19
2023-01-04T04:08:30.629Z,9.19
2023-01-04T04:11:21.338Z,9.24
2023-01-04T04:13:49.628Z,9.28
2023-01-04T04:16:16.914Z,9.32
2023-01-04T04:18:43.685Z,9.35
2023-01-04T04:21:10.247Z,9.41
2023-01-04T04:23:36.786Z,9.45
2023-01-04T04:26:03.340Z,9.48
2023-01-04T04:28:29.829Z,9.48
2023-01-04T04:30:56.400Z,9.51
2023-01-04T04:33:22.819Z,9.52
2023-01-04T04:35:54.426Z,9.53
2023-01-04T04:38:21.777Z,9.54
2023-01-04T04:41:07.500Z,9.55
2023-01-04T04:43:35.292Z,9.60
2023-01-04T04:46:03.248Z,9.63
2023-01-04T04:48:29.912Z,9.65
2023-01-04T04:50:59.458Z,9.68
2023-01-04T04:53:25.951Z,9.69
2023-01-04T04:55:54.072Z,9.69
2023-01-04T04:58:21.403Z,9.70
2023-01-04T05:00:47.927Z,9.69
2023-01-04T05:03:15.039Z,9.68
2023-01-04T05:05:42.614Z,9.70
2023-01-04T05:08:09.357Z,9.70
2023-01-04T05:10:37.350Z,9.72
2023-01-04T05:13:05.988Z,9.71
2023-01-04T05:15:52.630Z,9.72
2023-01-04T05:18:20.964Z,9.71
2023-01-04T05:20:48.386Z,9.70
2023-01-04T05:23:16.573Z,9.70
2023-01-04T05:25:43.300Z,9.71
2023-01-04T05:28:10.403Z,9.70
2023-01-04T05:30:51.935Z,9.72
2023-01-04T05:33:24.492Z,9.70
2023-01-04T05:35:52.649Z,9.70
2023-01-04T05:38:20.142Z,9.70
2023-01-04T05:40:48.477Z,9.72
2023-01-04T05:43:17.908Z,9.73
2023-01-04T05:45:48.621Z,9.73
2023-01-04T05:48:16.099Z,9.73
2023-01-04T05:50:43.453Z,9.73
2023-01-04T05:53:10.446Z,9.74
2023-01-04T05:55:36.950Z,9.75
2023-01-04T05:58:03.745Z,9.76
2023-01-04T06:00:30.483Z,9.76
2023-01-04T06:02:57.236Z,9.77
2023-01-04T06:05:25.329Z,9.78
2023-01-04T06:07:52.552Z,9.80
2023-01-04T06:10:19.641Z,9.82
2023-01-04T06:12:47.183Z,9.82
2023-01-04T06:15:14.088Z,9.82
2023-01-04T06:17:41.119Z,9.82
2023-01-04T06:20:10.051Z,9.82
2023-01-04T06:22:37.398Z,9.84
2023-01-04T06:25:04.920Z,9.86
2023-01-04T06:27:31.511Z,9.88
2023-01-04T06:29:58.051Z,9.90
2023-01-04T06:32:24.561Z,9.92
2023-01-04T06:34:51.110Z,9.93
2023-01-04T06:37:17.652Z,9.94
2023-01-04T06:39:44.198Z,9.94
2023-01-04T06:42:30.687Z,9.97
2023-01-04T06:44:57.496Z,9.99
2023-01-04T06:47:24.008Z,9.98
2023-01-04T06:49:51.661Z,10.00
2023-01-04T06:52:18.399Z,10.00
2023-01-04T06:54:44.859Z,10.02
2023-01-04T06:57:12.088Z,10.06
2023-01-04T06:59:38.588Z,10.05
2023-01-04T07:02:05.389Z,10.07
2023-01-04T07:04:32.066Z,10.06
2023-01-04T07:06:58.777Z,10.07
2023-01-04T07:09:25.204Z,10.07
2023-01-04T07:11:51.751Z,10.08
2023-01-04T07:14:18.428Z,10.09
2023-01-04T07:16:44.983Z,10.09
2023-01-04T07:19:11.522Z,10.08
2023-01-04T07:21:37.980Z,10.09
2023-01-04T07:24:04.465Z,10.10
2023-01-04T07:26:32.083Z,10.10
2023-01-04T07:29:17.144Z,10.10
2023-01-04T07:31:48.620Z,10.10
2023-01-04T07:34:16.449Z,10.12
2023-01-04T07:36:43.047Z,10.13
2023-01-04T07:39:11.705Z,10.13
2023-01-04T07:41:41.872Z,10.14
2023-01-04T07:44:10.235Z,10.14
2023-01-04T07:46:38.598Z,10.13
2023-01-04T07:49:08.998Z,10.13
2023-01-04T07:51:38.131Z,10.12
2023-01-04T07:54:05.123Z,10.13
2023-01-04T07:56:31.591Z,10.14
2023-01-04T07:58:59.291Z,10.13
2023-01-04T08:01:27.411Z,10.13
2023-01-04T08:03:54.036Z,10.14
2023-01-04T08:06:21.647Z,10.14
2023-01-04T08:08:48.319Z,10.14
2023-01-04T08:11:17.584Z,10.14
2023-01-04T08:13:44.659Z,10.15
2023-01-04T08:16:22.617Z,10.15
2023-01-04T08:18:56.639Z,10.16
2023-01-04T08:21:24.008Z,10.17
2023-01-04T08:23:51.789Z,10.17
2023-01-04T08:26:19.106Z,10.19
2023-01-04T08:28:45.643Z,10.20
2023-01-04T08:31:15.212Z,10.20
2023-01-04T08:33:42.810Z,10.22
2023-01-04T08:36:20.984Z,10.24
2023-01-04T08:39:00.486Z,10.25
2023-01-04T08:41:57.329Z,10.26
2023-01-04T08:44:21.556Z,10.27
2023-01-04T08:46:49.508Z,10.28
2023-01-04T08:49:18.712Z,10.29
2023-01-04T08:51:46.009Z,10.28
2023-01-04T08:54:13.404Z,10.30
2023-01-04T08:56:40.619Z,10.30
2023-01-04T08:59:07.397Z,10.31
2023-01-04T09:01:37.378Z,10.31
2023-01-04T09:04:04.127Z,10.33
2023-01-04T09:06:31.007Z,10.34
2023-01-04T09:08:57.924Z,10.36
2023-01-04T09:11:24.995Z,10.38
2023-01-04T09:14:06.890Z,10.40
2023-01-04T09:16:42.396Z,10.40
2023-01-04T09:19:09.147Z,10.42
2023-01-04T09:21:36.494Z,10.43
2023-01-04T09:24:03.314Z,10.43
2023-01-04T09:26:30.257Z,10.44
2023-01-04T09:28:57.265Z,10.46
2023-01-04T09:31:26.489Z,10.46
2023-01-04T09:36:40.888Z,10.48
2023-01-04T09:39:07.424Z,10.50
2023-01-04T09:41:46.146Z,10.52
2023-01-04T09:45:23.035Z,10.55
2023-01-04T09:48:06.758Z,10.57
2023-01-04T09:50:54.464Z,10.57
2023-01-04T09:53:32.452Z,10.59
2023-01-04T09:56:11.269Z,10.59
2023-01-04T09:58:41.155Z,10.60
2023-01-04T10:01:28.250Z,10.62
2023-01-04T10:04:04.397Z,10.65
2023-01-04T10:06:33.014Z,10.65
2023-01-04T10:09:03.765Z,10.66
2023-01-04T10:11:38.211Z,10.68
2023-01-04T10:14:23.239Z,10.71
2023-01-04T10:17:44.536Z,10.71
2023-01-04T10:21:23.287Z,10.73
2023-01-04T10:23:36.961Z,10.73
2023-01-04T10:26:21.790Z,10.73
2023-01-04T10:29:16.435Z,10.75
2023-01-04T10:31:51.484Z,10.75
2023-01-04T10:34:25.672Z,10.75
2023-01-04T10:37:04.031Z,10.74
2023-01-04T10:39:33.574Z,10.75
2023-01-04T10:42:10.455Z,10.76
2023-01-04T10:44:49.418Z,10.76
2023-01-04T10:47:32.135Z,10.78
2023-01-04T10:50:03.080Z,10.78
2023-01-04T10:52:36.544Z,10.79
2023-01-04T10:55:28.361Z,10.80
2023-01-04T10:58:02.197Z,10.83
2023-01-04T11:00:35.175Z,10.84
2023-01-04T11:03:17.376Z,10.85
2023-01-04T11:06:09.608Z,10.87
2023-01-04T11:08:40.549Z,10.87
2023-01-04T11:11:14.560Z,10.88
2023-01-04T11:13:41.225Z,10.89
2023-01-04T11:16:08.216Z,10.90
2023-01-04T11:18:40.975Z,10.90
2023-01-04T11:21:12.368Z,10.88
2023-01-04T11:23:39.135Z,10.90
2023-01-04T11:26:11.806Z,10.90
2023-01-04T11:28:45.886Z,10.91
2023-01-04T11:31:26.387Z,10.91
2023-01-04T11:34:01.627Z,10.92
2023-01-04T11:36:30.981Z,10.91
2023-01-04T11:38:58.573Z,10.92
2023-01-04T11:41:25.920Z,10.94
2023-01-04T11:44:03.746Z,10.96
2023-01-04T11:46:32.397Z,10.99
2023-01-04T11:48:58.993Z,11.03
2023-01-04T11:51:34.558Z,11.10
2023-01-04T11:54:19.652Z,11.14
2023-01-04T11:57:12.489Z,11.16
2023-01-04T11:59:39.334Z,11.19
2023-01-04T12:05:28.867Z,11.21
2023-01-04T12:07:57.379Z,11.21
2023-01-04T12:10:27.393Z,11.22
2023-01-04T12:12:55.905Z,11.25
2023-01-04T12:15:34.518Z,11.27
2023-01-04T12:18:19.245Z,11.28
2023-01-04T12:20:45.865Z,11.30
2023-01-04T12:23:13.763Z,11.31
2023-01-04T12:25:43.238Z,11.34
2023-01-04T12:28:29.783Z,11.38
2023-01-04T12:31:19.916Z,11.41
2023-01-04T12:33:56.577Z,11.44
2023-01-04T12:37:04.787Z,11.47
2023-01-04T12:39:41.295Z,11.47
2023-01-04T12:42:07.714Z,11.49
2023-01-04T12:44:37.536Z,11.51
2023-01-04T12:48:03.395Z,11.51
2023-01-04T12:50:32.035Z,11.53
2023-01-04T12:55:53.096Z,11.56
2023-01-04T12:58:49.793Z,11.60
2023-01-04T13:01:23.735Z,11.61
2023-01-04T13:04:02.477Z,11.62
2023-01-04T13:06:34.535Z,11.63
2023-01-04T13:09:02.116Z,11.64
2023-01-04T13:11:53.463Z,11.66
2023-01-04T13:14:33.248Z,11.67
2023-01-04T13:17:13.909Z,11.69
2023-01-04T13:19:41.695Z,11.70
2023-01-04T13:22:30.353Z,11.73
2023-01-04T13:24:59.215Z,11.73
2023-01-04T13:27:27.116Z,11.73
2023-01-04T13:29:54.242Z,11.73
2023-01-04T13:32:30.530Z,11.73
2023-01-04T13:35:06.832Z,11.72
2023-01-04T13:37:42.287Z,11.72
2023-01-04T13:40:29.458Z,11.74
2023-01-04T13:43:33.573Z,11.72
2023-01-04T13:46:13.177Z,11.70
2023-01-04T13:48:42.578Z,11.72
2023-01-04T13:51:26.093Z,11.72
2023-01-04T13:54:03.650Z,11.75
2023-01-04T13:56:32.983Z,11.73
2023-01-04T13:59:00.555Z,11.72
2023-01-04T14:01:31.516Z,11.72
2023-01-04T14:04:02.114Z,11.73
2023-01-04T14:06:30.712Z,11.70
2023-01-04T14:09:05.905Z,11.72
2023-01-04T14:12:05.684Z,11.71
2023-01-04T14:14:39.362Z,11.69
2023-01-04T14:17:26.151Z,11.68
2023-01-04T14:19:58.030Z,11.67
2023-01-04T14:22:28.959Z,11.65
2023-01-04T14:25:15.600Z,11.61
2023-01-04T14:27:42.864Z,11.58
2023-01-04T14:30:18.571Z,11.56
2023-01-04T14:32:56.335Z,11.55
2023-01-04T14:35:23.283Z,11.52
2023-01-04T14:37:50.395Z,11.50
2023-01-04T14:40:26.967Z,11.50
2023-01-04T14:42:54.942Z,11.48
2023-01-04T14:45:21.576Z,11.46
2023-01-04T14:47:48.359Z,11.46
2023-01-04T14:50:20.181Z,11.47
2023-01-04T14:52:54.227Z,11.45
2023-01-04T14:55:23.220Z,11.45
2023-01-04T14:57:49.722Z,11.44
2023-01-04T15:00:19.875Z,11.44
2023-01-04T15:02:50.892Z,11.42
2023-01-04T15:05:20.353Z,11.43
2023-01-04T15:07:47.052Z,11.42
2023-01-04T15:10:27.967Z,11.41
2023-01-04T15:12:56.078Z,11.41
2023-01-04T15:15:22.623Z,11.41
2023-01-04T15:17:49.422Z,11.41
2023-01-04T15:20:16.009Z,11.42
2023-01-04T15:22:42.890Z,11.42
2023-01-04T15:25:10.739Z,11.42
2023-01-04T15:27:42.151Z,11.42
2023-01-04T15:30:13.640Z,11.40
2023-01-04T15:32:40.685Z,11.39
2023-01-04T15:35:08.003Z,11.38
2023-01-04T15:37:34.673Z,11.36
2023-01-04T15:40:03.203Z,11.34
2023-01-04T15:42:48.988Z,11.30
2023-01-04T15:45:16.056Z,11.30
2023-01-04T15:47:44.192Z,11.26
2023-01-04T15:50:10.652Z,11.25
2023-01-04T15:52:41.094Z,11.24
2023-01-04T15:55:07.968Z,11.21
2023-01-04T15:57:37.424Z,11.20
2023-01-04T16:00:08.817Z,11.18
2023-01-04T16:02:38.736Z,11.16
2023-01-04T16:05:06.501Z,11.15
2023-01-04T16:07:36.436Z,11.14
2023-01-04T16:10:03.731Z,11.15
2023-01-04T16:12:56.270Z,11.13
2023-01-04T16:15:23.699Z,11.15
2023-01-04T16:17:50.349Z,11.14
2023-01-04T16:20:17.825Z,11.11
2023-01-04T16:22:44.797Z,11.10
2023-01-04T16:25:12.694Z,11.10
2023-01-04T16:27:39.840Z,11.10
2023-01-04T16:30:11.112Z,11.08
2023-01-04T16:32:41.504Z,11.08
2023-01-04T16:35:08.448Z,11.07
2023-01-04T16:37:35.330Z,11.06
2023-01-04T16:40:06.705Z,11.05
2023-01-04T16:42:34.981Z,11.01
2023-01-04T16:45:04.258Z,11.02
2023-01-04T16:47:38.887Z,11.01
2023-01-04T16:50:06.622Z,11.01
2023-01-04T16:52:33.217Z,11.02
2023-01-04T16:54:59.698Z,11.03
2023-01-04T16:57:26.797Z,11.02
2023-01-04T16:59:53.438Z,11.00
2023-01-04T17:02:20.205Z,11.00
2023-01-04T17:04:51.315Z,10.99
2023-01-04T17:07:17.722Z,10.99
2023-01-04T17:09:45.256Z,10.96
2023-01-04T17:12:45.610Z,10.95
2023-01-04T17:17:45.588Z,10.95
2023-01-04T17:20:12.175Z,10.94
2023-01-04T17:22:40.489Z,10.93
2023-01-04T17:25:07.509Z,10.94
2023-01-04T17:27:35.122Z,10.91
2023-01-04T17:30:01.716Z,10.91
2023-01-04T17:32:28.592Z,10.89
2023-01-04T17:34:57.458Z,10.92
2023-01-04T17:37:24.095Z,10.90
2023-01-04T17:39:50.562Z,10.92
2023-01-04T17:42:17.348Z,10.92
2023-01-04T17:44:45.928Z,10.92
2023-01-04T17:47:12.419Z,10.92
2023-01-04T17:49:38.859Z,10.91
2023-01-04T17:52:07.122Z,10.92
2023-01-04T17:54:35.525Z,10.91
2023-01-04T17:57:02.315Z,10.89
2023-01-04T17:59:29.118Z,10.85
2023-01-04T18:01:58.098Z,10.82
2023-01-04T18:04:24.671Z,10.81
2023-01-04T18:06:54.461Z,10.80
2023-01-04T18:09:24.535Z,10.76
2023-01-04T18:11:51.189Z,10.74
2023-01-04T18:14:17.746Z,10.76
2023-01-04T18:16:57.732Z,10.74
2023-01-04T18:19:27.395Z,10.72
2023-01-04T18:21:54.380Z,10.69
2023-01-04T18:24:38.213Z,10.67
2023-01-04T18:27:26.710Z,10.63
2023-01-04T18:29:55.085Z,10.62
2023-01-04T18:32:23.188Z,10.62
2023-01-04T18:34:49.780Z,10.65
2023-01-04T18:37:18.444Z,10.66
2023-01-04T18:39:45.763Z,10.68
2023-01-04T18:42:12.300Z,10.69
2023-01-04T18:44:45.587Z,10.71
2023-01-04T18:47:14.801Z,10.69
2023-01-04T18:49:41.612Z,10.69
2023-01-04T18:52:11.612Z,10.65
2023-01-04T18:54:38.492Z,10.63
2023-01-04T18:57:05.195Z,10.61
2023-01-04T18:59:32.348Z,10.61
2023-01-04T19:02:01.152Z,10.61
2023-01-04T19:04:32.533Z,10.59
2023-01-04T19:06:59.363Z,10.55
2023-01-04T19:09:25.867Z,10.55
2023-01-04T19:11:52.578Z,10.54
2023-01-04T19:14:19.161Z,10.57
2023-01-04T19:16:45.811Z,10.60
2023-01-04T19:19:12.566Z,10.63
2023-01-04T19:21:39.085Z,10.63
2023-01-04T19:24:05.743Z,10.66
2023-01-04T19:26:32.275Z,10.66
2023-01-04T19:28:58.777Z,10.68
2023-01-04T19:31:25.324Z,10.69
2023-01-04T19:33:51.858Z,10.71
2023-01-04T19:36:19.305Z,10.72
2023-01-04T19:38:46.197Z,10.77
2023-01-04T19:41:21.120Z,10.76
2023-01-04T19:43:50.991Z,10.76
2023-01-04T19:46:17.685Z,10.76
2023-01-04T19:48:44.971Z,10.75
2023-01-04T19:51:14.718Z,10.77
2023-01-04T19:53:42.349Z,10.78
2023-01-04T19:56:09.509Z,10.77
2023-01-04T19:58:37.373Z,10.78
2023-01-04T20:01:04.795Z,10.79
2023-01-04T20:03:31.484Z,10.80
2023-01-04T20:06:03.304Z,10.82
2023-01-04T20:08:29.761Z,10.83
2023-01-04T20:10:58.358Z,10.80
2023-01-04T20:13:26.478Z,10.81
2023-01-04T20:15:53.107Z,10.79
2023-01-04T20:18:20.197Z,10.79
2023-01-04T20:20:47.038Z,10.79
2023-01-04T20:23:14.913Z,10.82
2023-01-04T20:25:43.746Z,10.82
2023-01-04T20:28:11.165Z,10.82
2023-01-04T20:30:38.326Z,10.81
2023-01-04T20:33:05.580Z,10.80
2023-01-04T20:35:32.302Z,10.81
2023-01-04T20:37:58.942Z,10.83
2023-01-04T20:40:26.497Z,10.84
2023-01-04T20:43:12.245Z,10.84
2023-01-04T20:45:43.526Z,10.83
2023-01-04T20:48:10.680Z,10.82
2023-01-04T20:50:37.449Z,10.79
2023-01-04T20:53:04.497Z,10.75
2023-01-04T20:55:31.305Z,10.73
2023-01-04T20:57:58.149Z,10.72
2023-01-04T21:00:24.670Z,10.70
2023-01-04T21:02:51.470Z,10.67
2023-01-04T21:05:18.189Z,10.63
2023-01-04T21:07:44.626Z,10.62
2023-01-04T21:10:11.222Z,10.61
2023-01-04T21:12:38.703Z,10.57
2023-01-04T21:15:06.549Z,10.55
2023-01-04T21:17:33.094Z,10.55
2023-01-04T21:19:59.719Z,10.56
2023-01-04T21:22:26.763Z,10.61
2023-01-04T21:24:53.248Z,10.60
2023-01-04T21:27:19.845Z,10.64
2023-01-04T21:29:46.346Z,10.68
2023-01-04T21:32:12.812Z,10.67
2023-01-04T21:34:39.311Z,10.69
2023-01-04T21:37:07.212Z,10.69
2023-01-04T21:39:34.050Z,10.71
2023-01-04T21:42:00.540Z,10.69
2023-01-04T21:44:27.043Z,10.69
2023-01-04T21:46:53.591Z,10.70
2023-01-04T21:49:20.171Z,10.69
2023-01-04T21:51:46.639Z,10.71
2023-01-04T21:54:13.594Z,10.72
2023-01-04T21:56:40.150Z,10.68
2023-01-04T21:59:06.730Z,10.65
2023-01-04T22:01:35.396Z,10.62
2023-01-04T22:04:03.395Z,10.60
2023-01-04T22:06:30.120Z,10.58
2023-01-04T22:08:58.549Z,10.54
2023-01-04T22:11:25.106Z,10.50
2023-01-04T22:13:51.633Z,10.47
2023-01-04T22:16:18.310Z,10.45
2023-01-04T22:18:51.199Z,10.43
2023-01-04T22:21:20.048Z,10.39
2023-01-04T22:23:46.829Z,10.37
2023-01-04T22:26:13.323Z,10.35
2023-01-04T22:28:40.399Z,10.35
2023-01-04T22:31:10.327Z,10.37
2023-01-04T22:33:38.298Z,10.34
2023-01-04T22:36:17.117Z,10.33
2023-01-04T22:38:46.464Z,10.31
2023-01-04T22:41:16.325Z,10.29
2023-01-04T22:43:44.094Z,10.29
2023-01-04T22:46:20.178Z,10.31
2023-01-04T22:48:46.740Z,10.29
2023-01-04T22:51:15.154Z,10.30
2023-01-04T22:53:41.754Z,10.31
2023-01-04T22:56:20.207Z,10.31
2023-01-04T22:58:53.059Z,10.32
2023-01-04T23:01:20.916Z,10.33
2023-01-04T23:03:48.813Z,10.33
2023-01-04T23:06:15.632Z,10.31
2023-01-04T23:08:42.484Z,10.28
2023-01-04T23:11:11.906Z,10.30
2023-01-04T23:13:42.200Z,10.29
2023-01-04T23:16:12.302Z,10.26
2023-01-04T23:18:39.114Z,10.26
2023-01-04T23:21:06.362Z,10.25
2023-01-04T23:23:33.603Z,10.24
2023-01-04T23:26:15.202Z,10.24
2023-01-04T23:28:42.674Z,10.19
2023-01-04T23:31:12.550Z,10.16
2023-01-04T23:33:39.651Z,10.13
2023-01-04T23:36:15.438Z,10.10
2023-01-04T23:38:43.557Z,10.06
2023-01-04T23:41:10.826Z,10.04
2023-01-04T23:43:38.664Z,10.01
2023-01-04T23:46:18.080Z,10.01
2023-01-04T23:48:44.785Z,9.99
2023-01-04T23:51:14.865Z,9.95
2023-01-04T23:53:42.002Z,9.90
2023-01-04T23:56:17.290Z,9.88
2023-01-04T23:58:43.758Z,9.86
